Time;durP1;ratioP1;P1;durP2;ratioP2;P2;SDS_P1;SDS_P2;PMS_P1;PMS_P2;Temp;Humidity;BMP_temperature;BMP_pressure;BME280_temperature;BME280_humidity;BME280_pressure;Samples;Min_cycle;Max_cycle;Signal;HPM_P1;HPM_P2
2024/04/04 00:01:40;;;;;;;1.50;1.30;;;11.90;99.90;;;;;;5066395;28;20184;-74
2024/04/04 00:04:07;;;;;;;1.48;0.88;;;12.00;99.90;;;;;;5056503;28;20286;-74
2024/04/04 00:06:32;;;;;;;2.13;1.00;;;11.90;99.90;;;;;;5047851;28;20190;-73
2024/04/04 00:08:58;;;;;;;3.30;1.45;;;12.00;99.90;;;;;;5064737;28;20623;-72
2024/04/04 00:11:24;;;;;;;2.25;0.90;;;12.00;99.90;;;;;;5062207;28;20217;-73
2024/04/04 00:13:49;;;;;;;1.30;0.85;;;11.90;99.90;;;;;;5064193;28;20183;-71
2024/04/04 00:16:15;;;;;;;0.90;0.90;;;12.00;99.90;;;;;;5056490;28;20648;-72
2024/04/04 00:18:42;;;;;;;1.02;0.82;;;12.00;99.90;;;;;;5053269;28;20196;-72
2024/04/04 00:21:08;;;;;;;2.28;0.90;;;11.90;99.90;;;;;;5072363;28;20240;-73
2024/04/04 00:23:33;;;;;;;1.73;0.88;;;12.00;99.90;;;;;;5058785;28;20208;-73
2024/04/04 00:26:00;;;;;;;2.72;0.90;;;12.00;99.90;;;;;;5063102;28;20183;-74
2024/04/04 00:28:27;;;;;;;1.20;0.90;;;12.00;99.90;;;;;;5073826;28;20191;-72
2024/04/04 00:30:52;;;;;;;0.80;0.80;;;12.00;99.90;;;;;;5054096;28;20183;-71
2024/04/04 00:33:18;;;;;;;1.05;0.63;;;12.00;99.90;;;;;;5046956;28;20244;-72
2024/04/04 00:35:43;;;;;;;1.10;1.00;;;12.00;99.90;;;;;;5060198;28;20213;-73
2024/04/04 00:38:09;;;;;;;1.98;0.80;;;12.00;99.90;;;;;;5066023;28;20959;-73
2024/04/04 00:40:39;;;;;;;1.85;0.68;;;12.00;99.90;;;;;;5068159;28;20194;-72
2024/04/04 00:43:04;;;;;;;1.63;0.70;;;12.00;99.90;;;;;;5062636;28;20234;-73
2024/04/04 00:45:31;;;;;;;0.98;0.70;;;12.00;99.90;;;;;;5065164;28;20180;-73
2024/04/04 00:47:58;;;;;;;1.35;0.70;;;12.00;99.90;;;;;;5067517;22;20357;-72
2024/04/04 00:50:25;;;;;;;1.40;0.80;;;12.00;99.90;;;;;;5026179;28;20193;-72
2024/04/04 00:52:51;;;;;;;1.73;0.90;;;12.10;99.90;;;;;;5021665;28;20185;-72
2024/04/04 00:55:17;;;;;;;0.95;0.70;;;12.00;99.90;;;;;;5027779;28;20184;-73
2024/04/04 00:57:44;;;;;;;2.50;0.95;;;12.00;99.90;;;;;;5025233;28;20194;-72
2024/04/04 01:00:10;;;;;;;1.08;0.80;;;12.10;99.90;;;;;;5031694;28;20185;-72
2024/04/04 01:02:36;;;;;;;1.55;0.70;;;12.10;99.90;;;;;;5019659;28;20188;-72
2024/04/04 01:05:02;;;;;;;3.00;0.75;;;12.10;99.90;;;;;;5030784;28;20257;-72
2024/04/04 01:07:28;;;;;;;2.95;1.02;;;12.10;99.90;;;;;;5018825;28;20240;-72
2024/04/04 01:09:54;;;;;;;2.72;0.85;;;12.10;99.90;;;;;;4997958;28;20751;-73
2024/04/04 01:12:19;;;;;;;1.35;0.75;;;12.10;99.90;;;;;;4998977;28;20205;-73
2024/04/04 01:14:45;;;;;;;0.82;0.70;;;12.20;99.90;;;;;;5029775;28;20293;-72
2024/04/04 01:17:10;;;;;;;2.65;0.77;;;12.20;99.90;;;;;;5025243;28;20450;-73
2024/04/04 01:19:36;;;;;;;3.00;1.02;;;12.20;99.90;;;;;;5020321;28;20216;-72
2024/04/04 01:22:01;;;;;;;1.08;0.88;;;12.20;99.90;;;;;;5023260;28;20215;-72
2024/04/04 01:24:27;;;;;;;3.28;1.05;;;12.20;99.90;;;;;;5034445;28;20209;-73
2024/04/04 01:26:53;;;;;;;0.60;0.60;;;12.10;99.90;;;;;;5034137;28;20571;-73
2024/04/04 01:29:18;;;;;;;2.08;1.08;;;12.10;99.90;;;;;;5025858;28;20239;-73
2024/04/04 01:31:44;;;;;;;1.75;0.80;;;12.10;99.90;;;;;;5019058;28;20195;-73
2024/04/04 01:34:09;;;;;;;1.85;0.80;;;12.20;99.90;;;;;;5014740;28;20196;-72
2024/04/04 01:36:35;;;;;;;1.30;0.70;;;12.10;99.90;;;;;;5011600;28;20549;-73
2024/04/04 01:39:01;;;;;;;1.77;0.90;;;12.10;99.90;;;;;;5042196;28;20287;-72
2024/04/04 01:41:26;;;;;;;1.85;0.90;;;12.10;99.90;;;;;;5035991;28;20358;-72
2024/04/04 01:43:52;;;;;;;2.42;0.80;;;12.20;99.90;;;;;;5028620;28;20297;-71
2024/04/04 01:46:17;;;;;;;2.75;1.00;;;12.20;99.90;;;;;;5043045;28;20248;-72
2024/04/04 01:48:43;;;;;;;3.50;0.90;;;12.20;99.90;;;;;;5039501;28;20238;-72
2024/04/04 01:51:09;;;;;;;3.03;0.90;;;12.20;99.90;;;;;;5034783;28;20181;-72
2024/04/04 01:53:35;;;;;;;1.75;0.77;;;12.20;99.90;;;;;;5044683;28;20226;-72
2024/04/04 01:56:01;;;;;;;3.25;1.10;;;12.20;99.90;;;;;;5045527;28;20189;-73
2024/04/04 01:58:27;;;;;;;1.55;0.82;;;12.20;99.90;;;;;;5033742;28;20208;-72
2024/04/04 02:00:52;;;;;;;1.17;1.00;;;12.20;99.90;;;;;;5033509;28;20208;-73
2024/04/04 02:03:18;;;;;;;1.40;0.90;;;12.10;99.90;;;;;;5033526;28;20208;-71
2024/04/04 02:05:44;;;;;;;3.00;1.45;;;12.20;99.90;;;;;;5034292;28;20212;-73
2024/04/04 02:08:10;;;;;;;1.23;0.80;;;12.20;99.90;;;;;;5034310;28;20196;-73
2024/04/04 02:10:36;;;;;;;1.63;1.15;;;12.20;99.90;;;;;;5010506;28;20192;-72
2024/04/04 02:13:03;;;;;;;2.13;0.90;;;12.10;99.90;;;;;;5012623;28;20199;-71
2024/04/04 02:15:30;;;;;;;2.30;1.20;;;12.10;99.90;;;;;;5015732;28;20192;-72
2024/04/04 02:17:55;;;;;;;1.25;0.75;;;12.10;99.90;;;;;;5036139;28;20643;-73
2024/04/04 02:20:23;;;;;;;1.75;1.10;;;12.10;99.90;;;;;;5015495;28;20183;-72
2024/04/04 02:22:52;;;;;;;2.38;0.85;;;12.10;99.90;;;;;;5031245;28;20200;-73
2024/04/04 02:25:18;;;;;;;2.15;1.10;;;12.10;99.90;;;;;;5022859;28;20176;-72
2024/04/04 02:27:44;;;;;;;3.70;0.98;;;12.10;99.90;;;;;;5022422;28;20264;-73
2024/04/04 02:30:10;;;;;;;3.17;1.45;;;12.10;99.90;;;;;;5030792;28;20705;-72
2024/04/04 02:32:35;;;;;;;1.63;1.00;;;12.10;99.90;;;;;;5033027;28;20180;-72
2024/04/04 02:35:01;;;;;;;2.20;0.95;;;12.10;99.90;;;;;;5032918;28;20267;-72
2024/04/04 02:37:26;;;;;;;3.42;0.77;;;12.10;99.90;;;;;;5033489;28;20276;-73
2024/04/04 02:39:52;;;;;;;2.47;1.17;;;12.00;99.90;;;;;;5023691;28;20215;-72
2024/04/04 02:42:18;;;;;;;1.60;0.88;;;12.00;99.90;;;;;;5014214;28;20679;-73
2024/04/04 02:44:44;;;;;;;1.48;0.88;;;12.00;99.90;;;;;;5013431;28;20221;-72
2024/04/04 02:47:09;;;;;;;2.75;1.30;;;12.00;99.90;;;;;;5018783;28;20204;-73
2024/04/04 02:49:35;;;;;;;2.22;1.10;;;12.00;99.90;;;;;;5040437;28;20276;-73
2024/04/04 02:52:01;;;;;;;3.45;1.10;;;12.00;99.90;;;;;;5032491;28;20264;-72
2024/04/04 02:54:26;;;;;;;3.70;1.23;;;12.00;99.90;;;;;;5021366;28;20185;-73
2024/04/04 02:56:52;;;;;;;1.67;1.17;;;11.90;99.90;;;;;;4997346;28;20182;-73
2024/04/04 02:59:17;;;;;;;2.00;1.38;;;11.90;99.90;;;;;;5013578;28;20239;-73
2024/04/04 03:01:43;;;;;;;1.13;0.90;;;11.90;99.90;;;;;;5020347;28;20192;-73
2024/04/04 03:04:09;;;;;;;2.35;1.27;;;12.00;99.90;;;;;;5032970;28;20212;-72
2024/04/04 03:06:35;;;;;;;2.53;1.15;;;11.90;99.90;;;;;;5006162;28;20655;-72
2024/04/04 03:09:03;;;;;;;1.88;1.30;;;11.90;99.90;;;;;;5017011;28;20297;-73
2024/04/04 03:11:29;;;;;;;1.67;1.00;;;11.90;99.90;;;;;;5027228;28;20169;-72
2024/04/04 03:13:54;;;;;;;2.03;1.00;;;11.90;99.90;;;;;;5036308;28;20185;-72
2024/04/04 03:16:20;;;;;;;1.33;1.17;;;11.90;99.90;;;;;;5036857;28;20195;-72
2024/04/04 03:18:46;;;;;;;1.95;1.00;;;11.90;99.90;;;;;;5035839;28;20232;-73
2024/04/04 03:21:11;;;;;;;3.65;1.00;;;11.80;99.90;;;;;;5027065;28;20557;-73
2024/04/04 03:23:37;;;;;;;3.13;1.25;;;11.80;99.90;;;;;;5030075;28;20200;-72
2024/04/04 03:26:02;;;;;;;2.42;1.10;;;11.70;99.90;;;;;;5035640;28;20188;-72
2024/04/04 03:28:28;;;;;;;3.05;1.35;;;11.70;99.90;;;;;;5019979;28;20204;-73
2024/04/04 03:30:54;;;;;;;3.13;1.20;;;11.80;99.90;;;;;;5026561;28;20176;-72
2024/04/04 03:33:19;;;;;;;2.22;1.30;;;11.80;99.90;;;;;;5032543;28;20188;-72
2024/04/04 03:35:45;;;;;;;1.58;1.17;;;11.80;99.90;;;;;;5036070;28;20204;-73
2024/04/04 03:38:11;;;;;;;2.80;1.02;;;11.80;99.90;;;;;;5025152;28;20282;-72
2024/04/04 03:40:36;;;;;;;1.85;1.33;;;11.90;99.90;;;;;;5024484;28;20190;-72
2024/04/04 03:43:02;;;;;;;2.80;1.73;;;11.90;99.90;;;;;;5030754;28;20235;-73
2024/04/04 03:45:29;;;;;;;1.88;1.25;;;11.90;99.90;;;;;;5039247;28;20181;-73
2024/04/04 03:47:57;;;;;;;2.67;1.30;;;11.90;99.90;;;;;;5026148;28;20189;-73
2024/04/04 03:50:22;;;;;;;2.53;1.25;;;11.90;99.90;;;;;;5015764;28;20192;-73
2024/04/04 03:52:48;;;;;;;2.78;1.30;;;11.80;99.90;;;;;;5015522;28;20200;-73
2024/04/04 03:55:13;;;;;;;2.10;0.90;;;11.80;99.90;;;;;;5016125;28;20361;-73
2024/04/04 03:57:39;;;;;;;2.78;0.93;;;11.80;99.90;;;;;;5016319;28;20227;-73
2024/04/04 04:00:09;;;;;;;1.52;1.00;;;11.90;99.90;;;;;;5003124;28;20675;-72
2024/04/04 04:02:35;;;;;;;2.17;0.95;;;12.00;99.90;;;;;;5022183;28;20759;-73
2024/04/04 04:05:01;;;;;;;2.28;1.20;;;12.40;99.90;;;;;;5018654;28;20235;-73
2024/04/04 04:07:26;;;;;;;2.83;1.00;;;12.50;99.90;;;;;;5017323;28;20336;-73
2024/04/04 04:09:52;;;;;;;2.30;1.40;;;12.50;99.90;;;;;;5035660;28;20228;-73
2024/04/04 04:12:17;;;;;;;0.77;0.77;;;12.60;99.90;;;;;;5017364;28;20214;-73
2024/04/04 04:14:43;;;;;;;4.53;1.10;;;12.80;99.90;;;;;;5031826;28;20195;-73
2024/04/04 04:17:08;;;;;;;1.33;0.95;;;13.00;99.90;;;;;;5039016;28;20188;-73
2024/04/04 04:19:34;;;;;;;2.47;1.20;;;13.00;99.90;;;;;;5017236;28;20197;-72
2024/04/04 04:22:00;;;;;;;1.35;1.10;;;12.90;99.90;;;;;;5035796;28;20190;-72
2024/04/04 04:24:26;;;;;;;1.02;0.80;;;12.60;99.90;;;;;;5014809;28;20205;-72
2024/04/04 04:26:53;;;;;;;2.90;1.15;;;12.50;99.90;;;;;;5019231;28;20304;-73
2024/04/04 04:29:19;;;;;;;2.90;1.20;;;12.40;99.90;;;;;;5025936;28;20270;-72
2024/04/04 04:31:45;;;;;;;5.32;1.25;;;12.30;99.90;;;;;;5023603;28;20177;-73
2024/04/04 04:34:11;;;;;;;1.75;1.50;;;12.30;99.90;;;;;;5014820;28;20255;-72
2024/04/04 04:36:39;;;;;;;2.53;1.35;;;12.20;99.90;;;;;;5027984;28;20264;-72
2024/04/04 04:39:05;;;;;;;1.98;1.23;;;12.10;99.90;;;;;;5028164;28;20205;-72
2024/04/04 04:41:32;;;;;;;2.85;1.65;;;12.10;99.90;;;;;;5015202;28;20189;-72
2024/04/04 04:43:57;;;;;;;1.40;1.30;;;12.10;99.90;;;;;;5017693;28;20659;-72
2024/04/04 04:46:23;;;;;;;0.90;0.90;;;12.00;99.90;;;;;;5023445;28;20182;-72
2024/04/04 04:48:48;;;;;;;1.80;1.45;;;12.00;99.90;;;;;;5020494;28;20223;-74
2024/04/04 04:51:14;;;;;;;2.70;1.50;;;12.00;99.90;;;;;;5022791;28;20200;-72
2024/04/04 04:53:40;;;;;;;1.75;1.50;;;11.90;99.90;;;;;;5023063;28;20189;-73
2024/04/04 04:56:06;;;;;;;3.22;1.73;;;11.90;99.90;;;;;;5015635;28;20243;-73
2024/04/04 04:58:33;;;;;;;3.42;1.80;;;11.90;99.90;;;;;;5028416;28;20227;-72
2024/04/04 05:00:58;;;;;;;2.25;2.05;;;11.90;99.90;;;;;;5000599;28;20181;-73
2024/04/04 05:03:24;;;;;;;3.88;2.45;;;11.90;99.90;;;;;;5007335;28;20211;-73
2024/04/04 05:05:51;;;;;;;2.65;2.08;;;11.80;99.90;;;;;;5014862;28;20193;-72
2024/04/04 05:08:17;;;;;;;4.30;1.90;;;11.80;99.90;;;;;;5015788;28;20209;-72
2024/04/04 05:10:43;;;;;;;2.20;1.73;;;11.80;99.90;;;;;;5015063;28;20227;-72
2024/04/04 05:13:09;;;;;;;2.50;1.83;;;11.80;99.90;;;;;;5014729;28;20185;-72
2024/04/04 05:15:51;;;;;;;4.53;2.05;;;11.70;99.90;;;;;;5021331;28;20197;-72
2024/04/04 05:18:17;;;;;;;3.90;1.92;;;11.70;99.90;;;;;;5024016;28;20206;-73
2024/04/04 05:20:43;;;;;;;2.88;1.95;;;11.70;99.90;;;;;;5034851;28;20212;-73
2024/04/04 05:23:08;;;;;;;3.13;2.08;;;11.70;99.90;;;;;;5034060;28;20263;-73
2024/04/04 05:25:34;;;;;;;2.22;2.03;;;11.70;99.90;;;;;;5035155;28;20211;-74
2024/04/04 05:28:00;;;;;;;2.25;1.70;;;11.60;99.90;;;;;;5046702;28;20236;-73
2024/04/04 05:30:26;;;;;;;2.38;1.50;;;11.70;99.90;;;;;;5026071;28;20266;-73
2024/04/04 05:32:53;;;;;;;4.20;2.00;;;11.60;99.90;;;;;;5014034;28;20185;-72
2024/04/04 05:35:18;;;;;;;2.55;2.00;;;11.50;99.90;;;;;;5022577;28;20193;-72
2024/04/04 05:37:44;;;;;;;2.67;2.13;;;11.50;99.90;;;;;;5016547;28;20199;-72
2024/04/04 05:40:10;;;;;;;10.18;2.50;;;11.50;99.90;;;;;;5033579;28;20212;-72
2024/04/04 05:42:37;;;;;;;3.70;1.83;;;11.50;99.90;;;;;;5031086;28;20188;-72
2024/04/04 05:45:03;;;;;;;1.70;1.48;;;11.60;99.90;;;;;;5028339;28;20188;-72
2024/04/04 05:47:28;;;;;;;1.58;1.45;;;11.60;99.90;;;;;;5034424;28;20181;-73
2024/04/04 05:49:55;;;;;;;3.55;2.08;;;11.70;99.90;;;;;;5038797;28;20247;-72
2024/04/04 05:52:21;;;;;;;3.83;1.80;;;11.70;99.90;;;;;;5028028;28;20194;-73
2024/04/04 05:54:48;;;;;;;3.35;1.80;;;11.70;99.90;;;;;;5014645;28;20263;-72
2024/04/04 05:57:14;;;;;;;2.45;1.40;;;11.60;99.90;;;;;;5014452;28;20193;-73
2024/04/04 05:59:40;;;;;;;2.88;1.70;;;11.60;99.90;;;;;;5013606;28;20288;-73
2024/04/04 06:02:06;;;;;;;6.65;1.80;;;11.60;99.90;;;;;;5020187;28;20266;-71
2024/04/04 06:04:31;;;;;;;1.95;1.10;;;11.50;99.90;;;;;;5021784;28;20306;-73
2024/04/04 06:06:57;;;;;;;2.63;1.67;;;11.60;99.90;;;;;;5013660;28;20664;-72
2024/04/04 06:09:22;;;;;;;2.53;1.58;;;11.70;99.90;;;;;;5013182;28;20205;-72
2024/04/04 06:11:48;;;;;;;3.22;1.60;;;12.20;99.90;;;;;;5025215;28;20208;-73
2024/04/04 06:14:14;;;;;;;2.75;1.33;;;13.40;99.90;;;;;;5033524;28;20215;-73
2024/04/04 06:16:39;;;;;;;3.97;2.00;;;13.00;99.90;;;;;;5026688;28;20195;-73
2024/04/04 06:19:05;;;;;;;3.10;1.67;;;12.80;99.90;;;;;;5026222;28;20319;-72
2024/04/04 06:21:30;;;;;;;1.75;1.20;;;13.10;99.90;;;;;;5031307;28;20181;-72
2024/04/04 06:23:56;;;;;;;3.22;1.30;;;16.50;99.90;;;;;;5026283;28;20582;-73
2024/04/04 06:26:25;;;;;;;1.83;0.95;;;18.10;99.90;;;;;;5017456;28;20212;-73
2024/04/04 06:28:54;;;;;;;3.58;1.33;;;19.00;99.90;;;;;;5017292;28;20201;-72
2024/04/04 06:31:20;;;;;;;1.33;0.90;;;18.90;99.90;;;;;;5021798;28;20599;-72
2024/04/04 06:33:46;;;;;;;2.97;1.00;;;19.30;99.90;;;;;;5013184;28;20239;-72
2024/04/04 06:36:12;;;;;;;2.22;1.20;;;20.20;99.90;;;;;;5013419;28;20187;-73
2024/04/04 06:38:37;;;;;;;3.33;1.27;;;22.00;99.90;;;;;;5006049;28;20204;-72
2024/04/04 06:41:03;;;;;;;1.00;0.93;;;24.10;99.90;;;;;;5027229;28;20181;-72
2024/04/04 06:43:28;;;;;;;3.00;1.25;;;25.10;99.90;;;;;;5030886;28;20212;-73
2024/04/04 06:45:54;;;;;;;5.18;1.85;;;25.30;99.90;;;;;;5032560;28;20615;-72
2024/04/04 06:48:20;;;;;;;2.38;2.03;;;25.90;99.90;;;;;;5057719;23;20205;-75
2024/04/04 06:50:45;;;;;;;2.78;1.15;;;25.30;99.90;;;;;;5048955;28;20196;-72
2024/04/04 06:53:11;;;;;;;4.10;0.90;;;23.50;99.90;;;;;;5033680;28;20218;-72
2024/04/04 06:55:37;;;;;;;1.92;0.88;;;21.30;99.90;;;;;;5032496;28;20544;-72
2024/04/04 06:58:04;;;;;;;3.63;1.25;;;19.40;99.90;;;;;;5033515;28;20267;-71
2024/04/04 07:00:30;;;;;;;2.92;1.00;;;17.60;99.90;;;;;;5032510;28;20200;-72
2024/04/04 07:02:55;;;;;;;1.00;0.60;;;16.40;99.90;;;;;;5032448;28;20671;-72
2024/04/04 07:05:23;;;;;;;2.25;0.88;;;15.60;99.90;;;;;;5032336;28;20185;-72
2024/04/04 07:07:48;;;;;;;1.20;0.80;;;15.10;99.90;;;;;;5030567;28;20177;-71
2024/04/04 07:10:14;;;;;;;1.80;0.90;;;14.60;99.90;;;;;;5031590;28;20200;-71
2024/04/04 07:12:40;;;;;;;2.00;0.70;;;14.40;99.90;;;;;;5031563;28;20184;-71
2024/04/04 07:15:07;;;;;;;2.15;0.57;;;14.40;99.90;;;;;;5030790;28;20169;-72
2024/04/04 07:17:33;;;;;;;1.67;0.98;;;14.30;99.90;;;;;;5034859;28;20291;-72
2024/04/04 07:19:59;;;;;;;1.05;0.60;;;14.20;99.90;;;;;;5028213;28;20200;-71
2024/04/04 07:22:26;;;;;;;1.50;0.77;;;14.10;99.90;;;;;;5010070;28;20275;-70
2024/04/04 07:24:54;;;;;;;1.90;0.70;;;14.10;99.90;;;;;;5026867;28;20205;-71
2024/04/04 07:27:20;;;;;;;2.92;0.88;;;14.00;99.90;;;;;;5011670;28;20177;-71
2024/04/04 07:29:49;;;;;;;2.15;0.70;;;13.90;99.90;;;;;;5029510;28;20208;-72
2024/04/04 07:32:14;;;;;;;1.25;0.70;;;13.90;99.90;;;;;;5033176;28;20264;-73
2024/04/04 07:34:40;;;;;;;2.45;0.80;;;13.80;99.90;;;;;;5022590;28;20196;-73
2024/04/04 07:37:06;;;;;;;1.63;0.52;;;13.80;99.90;;;;;;5014748;28;20189;-73
2024/04/04 07:39:33;;;;;;;1.25;0.98;;;13.90;99.90;;;;;;5016565;28;20270;-72
2024/04/04 07:41:59;;;;;;;1.10;0.50;;;14.40;99.90;;;;;;5019596;28;20254;-72
2024/04/04 07:44:25;;;;;;;1.77;0.85;;;15.20;99.90;;;;;;5032760;28;20292;-71
2024/04/04 07:46:52;;;;;;;3.28;0.93;;;15.50;99.90;;;;;;5031453;28;20204;-72
2024/04/04 07:49:18;;;;;;;2.20;0.82;;;15.90;99.90;;;;;;5031948;28;20224;-70
2024/04/04 07:51:44;;;;;;;3.60;0.60;;;16.20;99.90;;;;;;5031257;28;20332;-73
2024/04/04 07:54:10;;;;;;;1.48;0.70;;;16.60;99.90;;;;;;5031985;28;20184;-72
2024/04/04 07:56:36;;;;;;;2.63;0.90;;;16.60;99.90;;;;;;5031497;28;20635;-72
2024/04/04 07:59:02;;;;;;;1.52;0.75;;;16.60;99.90;;;;;;5035221;28;20208;-72
2024/04/04 08:01:27;;;;;;;1.52;0.63;;;17.10;99.90;;;;;;5034808;28;20215;-73
2024/04/04 08:03:53;;;;;;;1.25;0.68;;;17.60;99.90;;;;;;5034039;28;20204;-73
2024/04/04 08:06:19;;;;;;;2.88;0.40;;;17.80;99.90;;;;;;5036061;28;20184;-73
2024/04/04 08:08:45;;;;;;;1.10;0.70;;;17.80;99.90;;;;;;5036265;28;20208;-71
2024/04/04 08:11:15;;;;;;;1.00;0.60;;;17.50;99.90;;;;;;5035463;28;20593;-72
2024/04/04 08:13:44;;;;;;;1.80;0.50;;;16.90;99.90;;;;;;5033083;28;20207;-71
2024/04/04 08:16:10;;;;;;;0.75;0.43;;;16.40;99.90;;;;;;5034573;28;20515;-73
2024/04/04 08:18:36;;;;;;;3.00;0.55;;;16.00;99.90;;;;;;5033221;28;20204;-72
2024/04/04 08:21:02;;;;;;;2.78;1.00;;;15.70;99.90;;;;;;5033972;28;20189;-72
2024/04/04 08:23:28;;;;;;;2.33;0.60;;;15.50;99.90;;;;;;5034258;28;20262;-73
2024/04/04 08:26:00;;;;;;;1.75;0.60;;;15.40;99.90;;;;;;5031457;28;20177;-72
2024/04/04 08:28:27;;;;;;;2.65;1.00;;;15.30;99.90;;;;;;5023159;28;20647;-72
2024/04/04 08:31:03;;;;;;;5.03;1.08;;;15.30;99.90;;;;;;5036694;28;20237;-71
2024/04/04 08:33:30;;;;;;;3.40;0.90;;;15.30;99.90;;;;;;5044145;28;20550;-71
2024/04/04 08:35:56;;;;;;;2.47;0.68;;;15.40;99.90;;;;;;5043665;28;20173;-72
2024/04/04 08:38:22;;;;;;;3.45;1.00;;;15.40;99.90;;;;;;5038389;28;20180;-71
2024/04/04 08:40:55;;;;;;;2.20;0.98;;;15.40;99.90;;;;;;5032658;28;20192;-71
2024/04/04 08:43:22;;;;;;;4.20;1.10;;;15.50;99.90;;;;;;5034575;28;20241;-72
2024/04/04 08:45:52;;;;;;;2.92;0.70;;;15.60;99.90;;;;;;5034176;28;20287;-72
2024/04/04 08:48:19;;;;;;;1.73;0.77;;;15.50;99.90;;;;;;5034111;28;20173;-71
2024/04/04 08:50:46;;;;;;;3.50;0.70;;;15.50;99.90;;;;;;5033733;28;20193;-71
2024/04/04 08:53:19;;;;;;;2.63;0.60;;;15.50;99.90;;;;;;5032275;28;20184;-72
2024/04/04 08:55:46;;;;;;;1.02;0.45;;;15.50;99.90;;;;;;5032477;28;20180;-71
2024/04/04 08:58:12;;;;;;;1.33;0.82;;;15.90;99.90;;;;;;5033427;28;20204;-72
2024/04/04 09:00:39;;;;;;;3.42;0.70;;;16.10;99.90;;;;;;5037053;28;20628;-71
2024/04/04 09:03:06;;;;;;;1.90;0.60;;;16.30;99.90;;;;;;5035655;28;20204;-72
2024/04/04 09:05:33;;;;;;;5.15;0.90;;;16.30;99.90;;;;;;5036272;28;20188;-72
2024/04/04 09:08:02;;;;;;;2.95;0.90;;;16.30;99.90;;;;;;5024778;28;20230;-72
2024/04/04 09:10:28;;;;;;;1.27;0.77;;;16.10;99.90;;;;;;5033738;28;20215;-72
2024/04/04 09:13:04;;;;;;;3.42;0.80;;;15.90;99.90;;;;;;5033363;28;20259;-72
2024/04/04 09:15:30;;;;;;;3.97;0.68;;;15.70;99.90;;;;;;5032862;28;20183;-72
2024/04/04 09:18:04;;;;;;;1.27;0.60;;;15.60;99.90;;;;;;5030195;28;20204;-71
2024/04/04 09:20:34;;;;;;;2.92;0.90;;;15.50;99.90;;;;;;5026580;28;20593;-71
2024/04/04 09:23:03;;;;;;;3.00;0.90;;;15.50;99.90;;;;;;5025347;28;20208;-73
2024/04/04 09:25:30;;;;;;;2.05;0.88;;;15.40;99.90;;;;;;5033608;28;20207;-72
2024/04/04 09:27:57;;;;;;;2.85;1.25;;;15.40;99.90;;;;;;5032085;28;20195;-73
2024/04/04 09:30:24;;;;;;;3.33;1.25;;;15.30;99.90;;;;;;5033329;28;20192;-73
2024/04/04 09:32:57;;;;;;;7.13;1.63;;;15.20;99.90;;;;;;5032401;28;20611;-72
2024/04/04 09:35:23;;;;;;;3.90;1.23;;;15.20;99.90;;;;;;5034010;28;20180;-72
2024/04/04 09:37:49;;;;;;;5.53;1.05;;;15.10;99.90;;;;;;5033463;28;20185;-70
2024/04/04 09:40:16;;;;;;;3.20;1.20;;;15.10;99.90;;;;;;5033336;28;20204;-73
2024/04/04 09:42:44;;;;;;;4.38;1.40;;;15.00;99.90;;;;;;5031671;28;20262;-72
2024/04/04 09:45:11;;;;;;;2.35;0.98;;;14.90;99.90;;;;;;5032387;28;20467;-71
2024/04/04 09:47:47;;;;;;;2.95;1.05;;;14.90;99.90;;;;;;5025613;28;20177;-71
2024/04/04 09:50:20;;;;;;;3.63;1.05;;;14.80;99.90;;;;;;5025069;28;20281;-71
2024/04/04 09:52:46;;;;;;;3.33;0.60;;;14.70;99.90;;;;;;5033055;28;20197;-71
2024/04/04 09:55:12;;;;;;;4.20;1.10;;;14.60;99.90;;;;;;5032111;28;20655;-72
2024/04/04 09:57:39;;;;;;;5.13;2.33;;;14.60;99.90;;;;;;5034660;28;20538;-72
2024/04/04 10:00:16;;;;;;;4.97;1.85;;;14.50;99.90;;;;;;5037423;28;20200;-72
2024/04/04 10:02:55;;;;;;;8.50;3.10;;;14.50;99.90;;;;;;5049960;28;20203;-72
2024/04/04 10:05:39;;;;;;;7.82;2.75;;;14.50;99.90;;;;;;5033496;28;20493;-71
2024/04/04 10:08:09;;;;;;;2.45;1.20;;;14.50;99.90;;;;;;5032988;28;20181;-72
2024/04/04 10:10:35;;;;;;;3.67;1.25;;;14.50;99.90;;;;;;5032804;28;20291;-73
2024/04/04 10:13:08;;;;;;;1.70;0.77;;;14.50;99.90;;;;;;5029345;28;20267;-71
2024/04/04 10:15:45;;;;;;;2.85;1.00;;;14.50;99.90;;;;;;5027559;28;20181;-72
2024/04/04 10:18:11;;;;;;;1.50;1.17;;;14.50;99.90;;;;;;5033206;28;20266;-72
2024/04/04 10:20:39;;;;;;;3.22;0.98;;;14.50;99.90;;;;;;5035490;28;20184;-72
2024/04/04 10:23:05;;;;;;;1.88;1.00;;;14.50;99.90;;;;;;5031613;28;20213;-72
2024/04/04 10:25:32;;;;;;;4.50;1.13;;;14.50;99.90;;;;;;5036268;28;20180;-71
2024/04/04 10:28:05;;;;;;;3.67;1.15;;;14.50;99.90;;;;;;5035654;28;20454;-72
2024/04/04 10:30:37;;;;;;;1.65;0.90;;;14.50;99.90;;;;;;5036692;28;20203;-72
2024/04/04 10:33:13;;;;;;;1.85;0.82;;;14.50;99.90;;;;;;5035757;28;20192;-72
2024/04/04 10:35:38;;;;;;;2.30;0.80;;;14.40;99.90;;;;;;5019777;28;20184;-70
2024/04/04 10:38:12;;;;;;;3.45;0.77;;;14.50;99.90;;;;;;5032731;28;20199;-71
2024/04/04 10:40:38;;;;;;;3.70;1.20;;;14.50;99.90;;;;;;5033158;28;20210;-71
2024/04/04 10:43:06;;;;;;;2.13;0.85;;;14.40;99.90;;;;;;5030206;28;20730;-73
2024/04/04 10:45:31;;;;;;;6.85;1.30;;;14.40;99.90;;;;;;5032108;28;20547;-71
2024/04/04 10:47:58;;;;;;;3.95;1.05;;;14.40;99.90;;;;;;5030739;28;20176;-72
2024/04/04 10:50:29;;;;;;;1.58;0.88;;;14.40;99.90;;;;;;5037591;28;20212;-72
2024/04/04 10:52:55;;;;;;;1.98;0.68;;;14.40;99.90;;;;;;5045367;28;20192;-71
2024/04/04 10:55:22;;;;;;;3.50;1.00;;;14.40;99.90;;;;;;5037051;28;20317;-73
2024/04/04 10:57:51;;;;;;;6.00;1.35;;;14.40;99.90;;;;;;5033388;28;20724;-71
2024/04/04 11:00:19;;;;;;;1.38;0.65;;;14.50;99.90;;;;;;5033335;28;20200;-72
2024/04/04 11:02:49;;;;;;;4.28;1.02;;;14.50;99.90;;;;;;5022771;28;20370;-73
2024/04/04 11:05:16;;;;;;;3.15;0.88;;;14.50;99.90;;;;;;5017291;28;20196;-72
2024/04/04 11:07:43;;;;;;;3.10;1.30;;;14.50;99.90;;;;;;5033373;28;20191;-72
2024/04/04 11:10:10;;;;;;;3.60;1.17;;;14.60;99.90;;;;;;5023443;28;20219;-72
2024/04/04 11:12:37;;;;;;;4.55;0.90;;;14.60;99.90;;;;;;5031518;28;20183;-71
2024/04/04 11:15:05;;;;;;;2.42;1.00;;;14.60;99.90;;;;;;5027442;28;20191;-71
2024/04/04 11:17:34;;;;;;;2.30;0.75;;;14.60;99.90;;;;;;5026536;28;20631;-72
2024/04/04 11:20:17;;;;;;;3.45;1.63;;;14.70;99.90;;;;;;5031853;28;20221;-72
2024/04/04 11:22:43;;;;;;;2.90;0.80;;;14.70;99.90;;;;;;5031743;28;20562;-71
2024/04/04 11:25:09;;;;;;;2.22;0.80;;;14.70;99.90;;;;;;5030765;28;20208;-72
2024/04/04 11:27:36;;;;;;;4.88;1.50;;;14.70;99.90;;;;;;5032713;28;20570;-71
2024/04/04 11:30:03;;;;;;;3.33;1.00;;;14.80;99.90;;;;;;5032103;28;20197;-71
2024/04/04 11:32:29;;;;;;;7.25;1.15;;;14.80;99.90;;;;;;5027001;28;20515;-72
2024/04/04 11:34:54;;;;;;;2.58;0.93;;;14.70;99.90;;;;;;5032953;28;20665;-72
2024/04/04 11:37:20;;;;;;;3.65;1.23;;;14.60;99.90;;;;;;5031508;28;20185;-72
2024/04/04 11:39:46;;;;;;;4.10;1.30;;;14.60;99.90;;;;;;5027483;28;20212;-72
2024/04/04 11:42:12;;;;;;;2.63;1.17;;;14.60;99.90;;;;;;5035114;28;20180;-73
2024/04/04 11:44:37;;;;;;;3.92;1.23;;;14.60;99.90;;;;;;5038549;28;20208;-72
2024/04/04 11:47:03;;;;;;;4.03;0.95;;;14.70;99.90;;;;;;5037904;28;20176;-72
2024/04/04 11:49:30;;;;;;;6.70;1.23;;;14.70;99.90;;;;;;5034585;28;20247;-71
2024/04/04 11:51:56;;;;;;;4.20;0.98;;;14.60;99.90;;;;;;5036867;28;20176;-71
2024/04/04 11:54:22;;;;;;;3.15;0.90;;;14.70;99.90;;;;;;5024021;28;20185;-73
2024/04/04 11:56:48;;;;;;;4.78;1.10;;;14.70;99.90;;;;;;5031127;28;20194;-71
2024/04/04 11:59:14;;;;;;;4.82;1.10;;;14.60;99.90;;;;;;5019540;28;20472;-73
2024/04/04 12:01:39;;;;;;;4.05;1.33;;;14.60;99.90;;;;;;5034908;28;20184;-73
2024/04/04 12:04:08;;;;;;;3.22;0.90;;;14.60;99.90;;;;;;5033503;28;20686;-70
2024/04/04 12:06:33;;;;;;;3.13;0.73;;;14.50;99.90;;;;;;5035409;28;20280;-73
2024/04/04 12:08:59;;;;;;;2.72;1.00;;;14.50;99.90;;;;;;5034640;28;20410;-71
2024/04/04 12:11:24;;;;;;;2.55;0.82;;;14.50;99.90;;;;;;5035162;28;20567;-72
2024/04/04 12:13:53;;;;;;;4.45;0.90;;;14.50;99.90;;;;;;5034608;28;20199;-72
2024/04/04 12:16:20;;;;;;;2.25;0.82;;;14.50;99.90;;;;;;5034603;28;20180;-71
2024/04/04 12:21:30;;;;;;;2.83;0.90;;;14.50;99.90;;;;;;5035507;28;20634;-72
2024/04/04 12:23:56;;;;;;;5.22;1.15;;;14.40;99.90;;;;;;5022994;28;20208;-72
2024/04/04 12:26:23;;;;;;;1.15;0.85;;;14.50;99.90;;;;;;5027138;28;20564;-72
2024/04/04 12:28:53;;;;;;;4.72;2.40;;;14.50;99.90;;;;;;5033389;28;20275;-72
2024/04/04 12:31:21;;;;;;;3.78;1.00;;;14.50;99.90;;;;;;5034380;28;20176;-72
2024/04/04 12:33:47;;;;;;;4.47;1.20;;;14.40;99.90;;;;;;5034138;28;20210;-71
2024/04/04 12:36:14;;;;;;;3.25;0.80;;;14.40;99.90;;;;;;5034271;28;20248;-72
2024/04/04 12:38:39;;;;;;;1.92;0.93;;;14.40;99.90;;;;;;5026913;28;20266;-73
2024/04/04 12:41:06;;;;;;;2.17;0.98;;;14.40;99.90;;;;;;5024329;28;20575;-72
2024/04/04 12:43:31;;;;;;;3.78;0.80;;;14.40;99.90;;;;;;5033647;28;20291;-71
2024/04/04 12:46:05;;;;;;;2.55;1.00;;;14.40;99.90;;;;;;5040148;28;20262;-72
2024/04/04 12:48:31;;;;;;;4.35;1.13;;;14.30;99.90;;;;;;5026701;28;20189;-73